Time;durP1;ratioP1;P1;durP2;ratioP2;P2;SDS_P1;SDS_P2;PMS_P1;PMS_P2;Temp;Humidity;BMP_temperature;BMP_pressure;BME280_temperature;BME280_humidity;BME280_pressure;Samples;Min_cycle;Max_cycle;Signal;HPM_P1;HPM_P2
2022/09/12 00:01:14;;;;;;;18.50;11.60;;;;;;;12.93;91.86;101100.48;107946;1278;71334;-83
2022/09/12 00:03:41;;;;;;;19.60;12.10;;;;;;;12.91;91.91;101096.11;107983;1278;73123;-83
2022/09/12 00:06:17;;;;;;;18.30;12.30;;;;;;;12.88;91.82;101092.70;107858;1278;64799;-84
2022/09/12 00:08:49;;;;;;;16.50;12.30;;;;;;;12.88;92.13;101093.95;107904;1278;61823;-83
2022/09/12 00:11:17;;;;;;;18.50;12.10;;;;;;;12.87;92.01;101097.11;107864;1278;76004;-83
2022/09/12 00:13:44;;;;;;;17.60;11.40;;;;;;;12.84;91.80;101094.38;107731;1278;71781;-83
2022/09/12 00:16:16;;;;;;;19.90;12.30;;;;;;;12.83;91.94;101089.67;107755;1279;73945;-83
2022/09/12 00:18:45;;;;;;;18.20;12.00;;;;;;;12.82;91.90;101089.83;107747;1279;62232;-82
2022/09/12 00:21:13;;;;;;;16.30;11.90;;;;;;;12.81;92.08;101080.75;107799;1277;59747;-83
2022/09/12 00:23:40;;;;;;;16.90;11.40;;;;;;;12.80;92.04;101084.25;107753;1278;74306;-83
2022/09/12 00:26:11;;;;;;;16.70;11.40;;;;;;;12.77;91.97;101082.98;107719;1278;71594;-83
2022/09/12 00:28:39;;;;;;;16.40;11.30;;;;;;;12.74;91.83;101083.58;107715;1278;73382;-83
2022/09/12 00:31:15;;;;;;;16.10;11.40;;;;;;;12.72;92.05;101080.64;107724;1278;62691;-83
2022/09/12 00:33:42;;;;;;;17.80;11.80;;;;;;;12.70;91.94;101077.33;107721;1278;60677;-83
2022/09/12 00:36:23;;;;;;;19.00;13.20;;;;;;;12.67;91.84;101084.16;107820;1277;73965;-83
2022/09/12 00:38:50;;;;;;;22.70;14.00;;;;;;;12.63;92.49;101077.52;107850;1279;71812;-83
2022/09/12 00:41:24;;;;;;;21.50;14.30;;;;;;;12.58;92.70;101077.89;107780;1278;73785;-83
2022/09/12 00:44:13;;;;;;;19.80;13.00;;;;;;;12.55;92.97;101081.09;107769;1278;63984;-83
2022/09/12 00:46:42;;;;;;;20.20;13.60;;;;;;;12.53;93.33;101080.78;107546;1277;61487;-83
2022/09/12 00:49:18;;;;;;;19.40;13.10;;;;;;;12.50;93.75;101080.27;107801;1278;74918;-83
2022/09/12 00:51:51;;;;;;;21.60;13.70;;;;;;;12.47;94.54;101082.27;107836;1278;72412;-83
2022/09/12 00:54:23;;;;;;;23.70;14.50;;;;;;;12.44;94.54;101081.02;107668;1279;73100;-83
2022/09/12 00:56:54;;;;;;;20.80;13.40;;;;;;;12.42;94.82;101081.40;107812;1277;63613;-83
2022/09/12 00:59:26;;;;;;;21.30;13.90;;;;;;;12.40;94.92;101072.16;107808;1277;60632;-83
2022/09/12 01:01:54;;;;;;;19.50;13.60;;;;;;;12.41;95.00;101071.39;107773;1278;74204;-84
2022/09/12 01:04:24;;;;;;;22.30;13.90;;;;;;;12.43;95.20;101067.98;107790;1278;72796;-84
2022/09/12 01:06:51;;;;;;;20.50;13.80;;;;;;;12.44;95.21;101067.48;107781;1278;72926;-83
2022/09/12 01:09:20;;;;;;;20.90;13.80;;;;;;;12.44;95.33;101064.15;107791;1277;61382;-83
2022/09/12 01:11:49;;;;;;;21.10;13.90;;;;;;;12.43;95.22;101063.86;107786;1278;60604;-84
2022/09/12 01:14:17;;;;;;;22.20;14.60;;;;;;;12.44;95.47;101066.13;107697;1278;74711;-84
2022/09/12 01:16:44;;;;;;;21.30;13.90;;;;;;;12.44;95.49;101062.20;107845;1278;71674;-84
2022/09/12 01:19:50;;;;;;;21.10;14.10;;;;;;;12.44;95.62;101057.33;107751;1278;72787;-83
2022/09/12 01:22:32;;;;;;;21.70;14.50;;;;;;;12.44;95.45;101055.81;107803;1277;64370;-84
2022/09/12 01:25:17;;;;;;;21.40;14.40;;;;;;;12.44;95.41;101058.27;107845;1278;60356;-84
2022/09/12 01:28:06;;;;;;;22.20;13.70;;;;;;;12.43;95.24;101058.20;107793;1278;75184;-84
2022/09/12 01:30:51;;;;;;;22.40;14.20;;;;;;;12.44;95.34;101056.02;107731;1278;71363;-84
2022/09/12 01:33:28;;;;;;;22.90;14.60;;;;;;;12.43;95.25;101053.41;107778;1278;73110;-84
2022/09/12 01:36:29;;;;;;;23.70;14.50;;;;;;;12.44;95.49;101053.08;107812;1278;63283;-84
2022/09/12 01:39:03;;;;;;;23.00;15.20;;;;;;;12.46;95.53;101051.02;107765;1277;60495;-83
2022/09/12 01:41:48;;;;;;;21.80;14.10;;;;;;;12.46;95.41;101049.58;107782;1278;76091;-84
2022/09/12 01:44:30;;;;;;;20.20;13.70;;;;;;;12.45;95.30;101042.53;107762;1278;71521;-84
2022/09/12 01:47:10;;;;;;;21.80;14.10;;;;;;;12.44;94.94;101041.08;107768;1277;72743;-84
2022/09/12 01:49:56;;;;;;;21.40;13.50;;;;;;;12.41;94.97;101036.60;107802;1278;62208;-84
2022/09/12 01:52:32;;;;;;;20.10;13.20;;;;;;;12.36;94.45;101036.89;107749;1277;61459;-84
2022/09/12 01:55:36;;;;;;;21.90;14.60;;;;;;;12.33;94.86;101038.07;107772;1278;76406;-84
2022/09/12 01:58:21;;;;;;;20.10;13.20;;;;;;;12.31;95.05;101039.42;107529;1277;72666;-84
2022/09/12 02:01:29;;;;;;;19.20;12.60;;;;;;;12.30;94.72;101038.42;107705;1278;72925;-83
2022/09/12 02:04:11;;;;;;;17.90;11.90;;;;;;;12.28;94.43;101035.85;107574;1278;63650;-84
2022/09/12 02:07:14;;;;;;;16.90;11.40;;;;;;;12.25;94.06;101030.55;107801;1279;60756;-83
2022/09/12 02:09:55;;;;;;;15.80;11.30;;;;;;;12.21;93.64;101029.88;107723;1278;76116;-84
2022/09/12 02:12:28;;;;;;;15.40;10.60;;;;;;;12.17;93.28;101031.77;107812;1277;71400;-83
2022/09/12 02:15:02;;;;;;;16.00;11.40;;;;;;;12.12;93.11;101027.05;107704;1278;73944;-83
2022/09/12 02:17:34;;;;;;;18.20;12.10;;;;;;;12.08;93.04;101021.70;107762;1277;61938;-84
2022/09/12 02:20:25;;;;;;;16.50;11.60;;;;;;;12.05;93.25;101022.51;107844;1277;59460;-83
2022/09/12 02:23:27;;;;;;;18.30;12.60;;;;;;;12.01;92.98;101024.02;107865;1278;73765;-84
2022/09/12 02:25:59;;;;;;;18.00;12.10;;;;;;;12.00;93.36;101027.56;107813;1278;72528;-83
2022/09/12 02:28:31;;;;;;;20.40;12.70;;;;;;;11.98;93.45;101025.21;107789;1278;73413;-84
2022/09/12 02:31:02;;;;;;;16.70;12.30;;;;;;;11.97;93.10;101022.60;107727;1278;63037;-83
2022/09/12 02:33:37;;;;;;;18.20;12.30;;;;;;;11.94;93.18;101024.28;108003;1278;60781;-83
2022/09/12 02:36:42;;;;;;;18.90;12.30;;;;;;;11.93;93.21;101024.84;107757;1278;76016;-83
2022/09/12 02:39:09;;;;;;;16.50;12.00;;;;;;;11.91;93.25;101018.88;107835;1277;71519;-84
2022/09/12 02:41:36;;;;;;;15.90;11.70;;;;;;;11.89;93.39;101023.80;107828;1278;74349;-83
2022/09/12 02:44:04;;;;;;;18.10;12.40;;;;;;;11.89;93.31;101023.48;107750;1278;61938;-83
2022/09/12 02:46:38;;;;;;;20.00;12.70;;;;;;;11.87;93.43;101023.82;107805;1278;59462;-84
2022/09/12 02:49:04;;;;;;;19.40;12.30;;;;;;;11.86;93.41;101016.88;107829;1278;75975;-84
2022/09/12 02:51:34;;;;;;;19.90;12.50;;;;;;;11.84;93.39;101018.12;107743;1277;72322;-84
2022/09/12 02:54:02;;;;;;;19.90;12.90;;;;;;;11.82;93.31;101013.21;107839;1278;73783;-84
2022/09/12 02:56:40;;;;;;;20.30;13.00;;;;;;;11.82;93.61;101010.92;107703;1277;61250;-84
2022/09/12 02:59:10;;;;;;;22.20;13.80;;;;;;;11.81;93.55;101012.98;107795;1278;61788;-84
2022/09/12 03:01:40;;;;;;;20.20;13.10;;;;;;;11.80;94.06;101009.49;107799;1278;74881;-84
2022/09/12 03:04:48;;;;;;;22.30;13.80;;;;;;;11.80;94.15;101008.10;107686;1278;72398;-84
2022/09/12 03:07:27;;;;;;;21.60;14.00;;;;;;;11.82;94.55;101007.90;107753;1278;74210;-84
2022/09/12 03:10:10;;;;;;;21.50;14.40;;;;;;;11.84;94.64;101005.20;107810;1276;62873;-84
2022/09/12 03:13:00;;;;;;;20.50;13.70;;;;;;;11.86;94.83;101004.98;107808;1277;60251;-84
2022/09/12 03:15:55;;;;;;;19.90;12.70;;;;;;;11.85;94.56;101006.84;107769;1277;74669;-83
2022/09/12 03:18:46;;;;;;;20.50;12.90;;;;;;;11.84;94.24;101000.60;107797;1278;72516;-83
2022/09/12 03:21:41;;;;;;;20.90;13.00;;;;;;;11.83;94.34;101002.27;107798;1278;73862;-83
2022/09/12 03:24:17;;;;;;;21.10;13.10;;;;;;;11.83;94.69;101000.30;107786;1278;62277;-83
2022/09/12 03:26:48;;;;;;;19.50;12.80;;;;;;;11.83;94.62;100998.91;107810;1279;61441;-83
2022/09/12 03:29:18;;;;;;;21.60;13.70;;;;;;;11.82;94.66;100999.35;107722;1278;75853;-83
2022/09/12 03:31:50;;;;;;;19.00;12.70;;;;;;;11.83;94.90;100996.95;107779;1278;71680;-84
2022/09/12 03:34:18;;;;;;;21.90;12.40;;;;;;;11.83;94.74;101003.49;107815;1277;71753;-84
2022/09/12 03:36:45;;;;;;;19.90;13.40;;;;;;;11.82;94.61;101003.84;107760;1278;63067;-83
2022/09/12 03:39:12;;;;;;;20.80;13.80;;;;;;;11.82;94.69;101001.36;107809;1278;60564;-83
2022/09/12 03:41:39;;;;;;;21.90;13.20;;;;;;;11.82;94.79;101001.22;107772;1277;75679;-83
2022/09/12 03:44:07;;;;;;;21.40;13.00;;;;;;;11.80;94.80;101003.16;107839;1278;72568;-83
2022/09/12 03:46:34;;;;;;;20.80;13.10;;;;;;;11.79;94.73;101003.64;107728;1278;73087;-83
2022/09/12 03:49:01;;;;;;;20.20;13.10;;;;;;;11.78;94.72;101003.61;107807;1278;62214;-83
2022/09/12 03:51:28;;;;;;;18.90;12.80;;;;;;;11.77;94.86;101005.14;107776;1277;61478;-83
2022/09/12 03:53:55;;;;;;;20.20;13.50;;;;;;;11.78;94.97;101007.52;107863;1277;76605;-83
2022/09/12 03:56:23;;;;;;;21.70;13.70;;;;;;;11.79;95.23;101006.30;107710;1277;71613;-83
2022/09/12 03:58:50;;;;;;;21.40;13.70;;;;;;;11.80;95.36;101007.40;107725;1279;72973;-83
2022/09/12 04:01:21;;;;;;;20.70;13.30;;;;;;;11.81;95.36;101006.27;107793;1277;62465;-83
2022/09/12 04:03:51;;;;;;;21.70;13.30;;;;;;;11.81;95.31;101008.02;107755;1278;61507;-83
2022/09/12 04:06:21;;;;;;;19.70;13.30;;;;;;;11.81;95.36;101008.13;107812;1279;75957;-83
2022/09/12 04:08:50;;;;;;;18.40;12.60;;;;;;;11.82;95.14;101006.86;107780;1278;71439;-83
2022/09/12 04:11:23;;;;;;;19.20;12.70;;;;;;;11.80;94.92;101008.06;107757;1278;74807;-83
2022/09/12 04:13:51;;;;;;;20.00;12.50;;;;;;;11.80;95.01;101005.48;107749;1280;62315;-83
2022/09/12 04:16:27;;;;;;;19.80;12.70;;;;;;;11.78;94.67;101001.65;107782;1278;61754;-83
2022/09/12 04:18:54;;;;;;;19.70;13.00;;;;;;;11.74;94.59;101002.96;107696;1280;75488;-83
2022/09/12 04:21:33;;;;;;;17.80;12.60;;;;;;;11.71;94.72;101005.48;107720;1278;71500;-83
2022/09/12 04:24:01;;;;;;;17.90;12.10;;;;;;;11.68;94.52;101006.91;107887;1277;73845;-83
2022/09/12 04:26:28;;;;;;;16.00;11.00;;;;;;;11.66;94.47;101005.33;107837;1279;62511;-83
2022/09/12 04:28:56;;;;;;;16.20;11.50;;;;;;;11.64;94.37;101008.23;107864;1278;60597;-83
2022/09/12 04:31:35;;;;;;;16.00;11.20;;;;;;;11.62;94.27;101009.30;107742;1278;75673;-82
2022/09/12 04:34:04;;;;;;;14.90;10.90;;;;;;;11.59;94.51;101007.98;107722;1279;71534;-83
2022/09/12 04:36:33;;;;;;;15.70;11.70;;;;;;;11.58;94.28;101012.11;107635;1281;71513;-83
2022/09/12 04:39:00;;;;;;;17.70;12.10;;;;;;;11.58;94.51;101014.77;107818;1278;63007;-83
2022/09/12 04:41:29;;;;;;;16.60;11.50;;;;;;;11.57;94.66;101009.45;107876;1277;61137;-83
2022/09/12 04:44:02;;;;;;;15.30;10.90;;;;;;;11.58;94.76;101013.48;107869;1278;74795;-83
2022/09/12 04:46:31;;;;;;;16.40;12.20;;;;;;;11.58;94.55;101010.98;107791;1279;72319;-83
2022/09/12 04:48:58;;;;;;;16.60;12.20;;;;;;;11.58;94.46;101012.55;107842;1278;73696;-83
2022/09/12 04:51:34;;;;;;;16.30;11.70;;;;;;;11.56;94.18;101013.35;107782;1278;61992;-83
2022/09/12 04:54:20;;;;;;;18.80;12.30;;;;;;;11.54;94.11;101009.31;107774;1278;60639;-83
2022/09/12 04:56:49;;;;;;;17.40;11.70;;;;;;;11.54;94.23;101007.05;107801;1278;73823;-83
2022/09/12 04:59:18;;;;;;;16.10;11.60;;;;;;;11.55;94.41;101007.11;107724;1277;71290;-83
2022/09/12 05:01:45;;;;;;;17.70;11.20;;;;;;;11.57;94.46;101001.92;107912;1274;74224;-86
2022/09/12 05:04:12;;;;;;;17.30;11.60;;;;;;;11.61;94.67;101005.91;107882;1268;63701;-86
2022/09/12 05:06:40;;;;;;;15.10;11.30;;;;;;;11.63;94.29;101007.65;107628;1272;63373;-86
2022/09/12 05:09:10;;;;;;;15.40;11.10;;;;;;;11.63;93.99;101012.89;107809;1269;75036;-86
2022/09/12 05:11:46;;;;;;;15.50;11.30;;;;;;;11.63;94.03;101007.75;107922;1268;71435;-86
2022/09/12 05:14:31;;;;;;;17.70;11.50;;;;;;;11.68;94.10;101010.96;107838;1277;75459;-86
2022/09/12 05:17:00;;;;;;;16.40;11.00;;;;;;;11.71;94.34;101009.03;107870;1268;62747;-87
2022/09/12 05:19:29;;;;;;;16.30;11.40;;;;;;;11.75;94.33;101012.43;107667;1268;59593;-87
2022/09/12 05:21:56;;;;;;;17.90;11.90;;;;;;;11.78;94.29;101014.50;107698;1268;74131;-87
2022/09/12 05:24:23;;;;;;;17.60;12.20;;;;;;;11.81;94.27;101016.84;107581;1271;74229;-87
2022/09/12 05:26:50;;;;;;;18.70;12.30;;;;;;;11.82;93.86;101017.42;107798;1268;73432;-87
2022/09/12 05:29:18;;;;;;;20.10;13.20;;;;;;;11.85;94.20;101020.54;107860;1268;65532;-86
2022/09/12 05:31:48;;;;;;;19.20;13.00;;;;;;;11.91;94.40;101022.96;108103;1268;177440;-78
2022/09/12 05:34:15;;;;;;;18.10;12.50;;;;;;;11.95;94.48;101023.73;108245;1276;74679;-78
2022/09/12 05:36:42;;;;;;;18.10;12.60;;;;;;;11.98;94.40;101024.21;108016;1277;70351;-78
2022/09/12 05:39:09;;;;;;;18.60;13.10;;;;;;;12.02;94.45;101026.26;108238;1277;73493;-78
2022/09/12 05:41:37;;;;;;;21.10;13.50;;;;;;;12.09;94.72;101023.12;108308;1276;62420;-78
2022/09/12 05:44:05;;;;;;;18.40;12.70;;;;;;;12.14;94.48;101023.36;108180;1277;61834;-78
2022/09/12 05:46:37;;;;;;;19.00;13.20;;;;;;;12.20;94.74;101024.87;107880;1277;73842;-78
2022/09/12 05:49:06;;;;;;;20.50;14.30;;;;;;;12.27;94.94;101024.61;107974;1278;71274;-79
2022/09/12 05:51:38;;;;;;;20.30;13.90;;;;;;;12.35;95.15;101020.79;108051;1277;75405;-79
2022/09/12 05:54:07;;;;;;;20.30;13.90;;;;;;;12.46;95.18;101022.08;108410;1277;62117;-78
2022/09/12 05:56:38;;;;;;;21.70;15.10;;;;;;;12.53;94.93;101023.67;108453;1277;61543;-78
2022/09/12 05:59:12;;;;;;;20.50;14.30;;;;;;;12.62;95.24;101023.16;108269;1276;76120;-78
2022/09/12 06:01:39;;;;;;;23.30;14.70;;;;;;;12.74;95.44;101023.02;108309;1277;71743;-79
2022/09/12 06:04:07;;;;;;;35.70;22.80;;;;;;;12.84;95.62;101017.15;108189;1277;73214;-79
2022/09/12 06:06:43;;;;;;;20.90;14.70;;;;;;;12.94;95.39;101020.61;108062;1277;63468;-79
2022/09/12 06:09:12;;;;;;;22.60;14.30;;;;;;;13.04;95.54;101024.57;108135;1276;59337;-79
2022/09/12 06:11:39;;;;;;;21.50;15.20;;;;;;;13.14;95.68;101025.90;108318;1276;74779;-78
2022/09/12 06:14:07;;;;;;;29.50;20.30;;;;;;;13.25;95.62;101026.74;107970;1277;70043;-78
2022/09/12 06:16:35;;;;;;;21.90;14.00;;;;;;;13.35;95.40;101024.19;108315;1277;72795;-78
2022/09/12 06:19:10;;;;;;;19.10;13.40;;;;;;;13.45;95.02;101028.10;108255;1277;62148;-78
2022/09/12 06:21:38;;;;;;;20.90;14.50;;;;;;;13.55;94.72;101023.88;108112;1277;60593;-78
2022/09/12 06:24:08;;;;;;;20.90;14.00;;;;;;;13.65;94.73;101021.73;108252;1276;72774;-78
2022/09/12 06:26:35;;;;;;;23.00;13.60;;;;;;;13.75;94.47;101021.11;108191;1277;73848;-78
2022/09/12 06:29:02;;;;;;;21.20;13.90;;;;;;;13.84;94.29;101024.68;108298;1277;73484;-78
2022/09/12 06:35:10;;;;;;;25.90;18.00;;;;;;;14.11;93.89;101019.79;106791;1275;1994905;-79
2022/09/12 06:37:36;;;;;;;18.00;12.50;;;;;;;14.23;94.03;101015.46;108254;1277;74928;-79
2022/09/12 06:40:03;;;;;;;19.90;13.00;;;;;;;14.36;93.68;101017.80;108350;1277;71221;-79
2022/09/12 06:42:30;;;;;;;17.40;12.00;;;;;;;14.51;93.63;101017.76;108313;1277;74341;-79
2022/09/12 06:44:56;;;;;;;20.50;13.20;;;;;;;14.62;93.19;101016.13;108320;1277;62419;-79
2022/09/12 06:47:23;;;;;;;17.70;12.20;;;;;;;14.74;92.55;101016.48;108385;1277;58718;-78
2022/09/12 06:49:50;;;;;;;17.40;12.30;;;;;;;14.82;91.94;101015.77;108320;1276;75060;-78
2022/09/12 06:52:16;;;;;;;17.90;12.10;;;;;;;14.91;91.66;101010.39;108138;1277;71273;-78
2022/09/12 06:54:43;;;;;;;17.60;13.10;;;;;;;15.00;91.36;101008.19;108365;1277;72269;-78
2022/09/12 06:57:10;;;;;;;17.50;12.10;;;;;;;15.11;91.44;101005.88;108355;1277;59079;-79
2022/09/12 06:59:36;;;;;;;17.90;11.40;;;;;;;15.22;91.24;101009.05;108275;1277;60152;-79
2022/09/12 07:02:03;;;;;;;16.90;11.50;;;;;;;15.34;90.83;101008.25;108336;1276;74949;-78
2022/09/12 07:04:32;;;;;;;16.30;11.30;;;;;;;15.44;90.20;101009.98;108231;1277;70112;-78
2022/09/12 07:07:00;;;;;;;14.70;10.80;;;;;;;15.53;89.86;101008.45;108245;1277;71858;-79
2022/09/12 07:09:27;;;;;;;15.80;11.90;;;;;;;15.63;89.81;101006.09;108330;1277;63103;-78
2022/09/12 07:11:53;;;;;;;16.00;12.00;;;;;;;15.78;89.98;101011.33;108355;1277;60593;-77
2022/09/12 07:14:20;;;;;;;25.50;19.40;;;;;;;15.92;89.63;101009.09;108292;1276;74341;-78
2022/09/12 07:16:46;;;;;;;16.50;12.10;;;;;;;16.05;88.84;101012.75;108336;1276;71170;-78
2022/09/12 07:19:13;;;;;;;14.00;10.90;;;;;;;16.17;88.78;101011.83;108054;1277;74385;-78
2022/09/12 07:21:40;;;;;;;14.00;10.60;;;;;;;16.33;88.43;101009.16;108354;1276;59192;-79
2022/09/12 07:24:08;;;;;;;15.90;11.70;;;;;;;16.46;87.97;101009.89;108363;1276;60081;-79
2022/09/12 07:26:36;;;;;;;14.10;10.10;;;;;;;16.60;87.37;101012.36;108253;1277;74689;-79
2022/09/12 07:29:04;;;;;;;13.60;10.10;;;;;;;16.71;86.58;101013.77;108365;1275;71132;-78
2022/09/12 07:31:50;;;;;;;12.40;9.60;;;;;;;16.81;85.81;101012.28;108361;1276;75468;-78
2022/09/12 07:34:17;;;;;;;16.20;10.60;;;;;;;16.89;85.56;101017.23;108363;1276;59515;-78
2022/09/12 07:36:43;;;;;;;13.60;10.10;;;;;;;17.03;86.06;101008.49;108289;1277;60568;-77
2022/09/12 07:39:10;;;;;;;12.80;8.70;;;;;;;17.14;84.85;101009.13;108285;1277;76491;-77
2022/09/12 07:41:37;;;;;;;12.80;8.30;;;;;;;17.19;84.18;101008.34;108314;1276;72419;-78
2022/09/12 07:44:05;;;;;;;14.80;9.40;;;;;;;17.28;84.57;101010.86;108368;1277;73746;-77
2022/09/12 07:46:32;;;;;;;14.40;10.30;;;;;;;17.38;83.52;101017.02;108266;1277;63728;-77
2022/09/12 07:49:00;;;;;;;12.00;8.40;;;;;;;17.43;82.26;101013.61;108058;1277;61360;-77
2022/09/12 07:51:28;;;;;;;26.10;18.40;;;;;;;17.50;82.50;101012.84;108237;1277;75517;-77
2022/09/12 07:53:55;;;;;;;12.80;8.40;;;;;;;17.64;82.90;101013.32;108073;1277;71599;-77
2022/09/12 07:56:23;;;;;;;11.40;8.50;;;;;;;17.78;82.21;101015.64;108183;1277;73061;-77
2022/09/12 07:58:55;;;;;;;16.20;12.20;;;;;;;17.95;81.93;101019.30;108282;1277;63763;-77
2022/09/12 08:01:22;;;;;;;18.80;13.20;;;;;;;18.10;80.41;101022.91;108301;1277;61652;-77
2022/09/12 08:03:53;;;;;;;13.90;8.50;;;;;;;18.21;80.20;101022.26;108311;1277;75971;-77
2022/09/12 08:06:25;;;;;;;10.50;7.70;;;;;;;18.32;79.75;101026.11;108263;1277;71330;-77
2022/09/12 08:08:54;;;;;;;10.00;7.30;;;;;;;18.43;79.36;101028.20;108293;1276;73729;-77
2022/09/12 08:11:22;;;;;;;10.50;7.50;;;;;;;18.54;78.59;101025.27;108299;1277;62092;-77
2022/09/12 08:13:50;;;;;;;11.70;8.90;;;;;;;18.62;77.31;101025.20;108385;1277;61822;-77
2022/09/12 08:16:22;;;;;;;10.00;7.60;;;;;;;18.72;77.45;101023.59;108286;1277;75730;-77
2022/09/12 08:18:49;;;;;;;9.10;7.30;;;;;;;18.87;77.65;101021.81;108294;1277;71284;-76
2022/09/12 08:21:28;;;;;;;8.60;6.60;;;;;;;19.05;77.57;101022.59;108277;1276;74517;-76
2022/09/12 08:23:58;;;;;;;11.30;7.80;;;;;;;19.24;77.25;101021.19;108155;1277;61995;-78
2022/09/12 08:26:24;;;;;;;12.60;9.80;;;;;;;19.37;75.55;101015.08;108196;1276;60501;-77
2022/09/12 08:28:52;;;;;;;9.60;7.50;;;;;;;19.46;74.83;101015.38;108185;1277;73721;-77
2022/09/12 08:31:21;;;;;;;30.00;22.30;;;;;;;19.57;74.40;101018.43;108056;1277;71648;-77
2022/09/12 08:33:47;;;;;;;10.30;7.20;;;;;;;19.65;73.37;101015.21;108303;1276;72696;-77
2022/09/12 08:36:23;;;;;;;22.10;16.00;;;;;;;19.81;74.20;101013.95;108360;1275;61798;-77
2022/09/12 08:38:54;;;;;;;10.60;6.80;;;;;;;20.01;73.41;101011.67;108259;1276;60381;-78
2022/09/12 08:41:30;;;;;;;8.30;5.90;;;;;;;20.12;71.26;101011.88;108412;1277;74867;-77
2022/09/12 08:44:11;;;;;;;13.80;9.70;;;;;;;20.21;70.85;101008.47;108208;1277;71178;-77
2022/09/12 08:46:50;;;;;;;14.90;7.60;;;;;;;20.42;71.20;101009.13;108274;1276;73001;-78
2022/09/12 08:49:50;;;;;;;8.60;6.10;;;;;;;20.55;68.30;101005.95;108363;1275;62102;-77
2022/09/12 08:52:24;;;;;;;7.50;6.10;;;;;;;20.67;68.15;101010.02;108048;1277;60730;-76
2022/09/12 08:54:51;;;;;;;19.80;15.30;;;;;;;20.79;67.32;101007.05;108304;1277;73924;-76
2022/09/12 08:57:18;;;;;;;7.80;4.70;;;;;;;20.89;66.55;101006.10;108313;1277;71694;-77
2022/09/12 08:59:45;;;;;;;8.20;5.10;;;;;;;21.03;66.55;101004.73;108280;1276;73027;-78
2022/09/12 09:02:48;;;;;;;7.80;5.50;;;;;;;21.13;66.24;101004.77;108033;1277;62372;-79
2022/09/12 09:05:33;;;;;;;6.50;4.50;;;;;;;21.25;64.93;101001.56;108173;1277;60698;-79
2022/09/12 09:08:19;;;;;;;8.70;4.90;;;;;;;21.30;63.76;101001.23;108335;1276;74884;-79
2022/09/12 09:10:48;;;;;;;6.80;4.70;;;;;;;21.36;64.18;101000.08;108270;1276;71389;-78
2022/09/12 09:16:27;;;;;;;7.00;4.80;;;;;;;21.56;62.22;100997.63;108262;1276;62112;-78
2022/09/12 09:18:58;;;;;;;6.30;4.60;;;;;;;21.64;61.75;100996.58;108093;1277;61012;-78
2022/09/12 09:21:31;;;;;;;6.80;4.20;;;;;;;21.75;61.73;100989.66;108244;1277;74693;-78
2022/09/12 09:24:20;;;;;;;6.70;4.50;;;;;;;21.84;60.99;100987.83;108344;1275;71063;-79
2022/09/12 09:26:54;;;;;;;7.10;4.90;;;;;;;21.94;60.34;100986.81;108297;1277;73640;-79
2022/09/12 09:29:39;;;;;;;5.50;4.30;;;;;;;22.07;60.14;100987.84;108078;1277;61354;-79
2022/09/12 09:32:17;;;;;;;6.50;4.30;;;;;;;22.18;59.36;100986.70;108265;1277;60489;-78
2022/09/12 09:34:44;;;;;;;5.80;3.80;;;;;;;22.20;58.05;100980.66;108372;1277;74217;-78
2022/09/12 09:37:27;;;;;;;5.80;3.90;;;;;;;22.28;58.65;100976.29;108292;1277;71002;-79
2022/09/12 09:39:54;;;;;;;5.10;3.40;;;;;;;22.41;57.42;100970.64;108227;1277;72292;-79
2022/09/12 09:42:49;;;;;;;8.90;3.90;;;;;;;22.45;56.59;100969.13;108405;1276;59029;-79
2022/09/12 09:45:22;;;;;;;4.30;3.30;;;;;;;22.53;56.49;100966.92;108459;1275;60351;-79
2022/09/12 09:47:56;;;;;;;4.70;3.50;;;;;;;22.62;54.91;100964.07;108452;1276;74809;-79
2022/09/12 09:50:24;;;;;;;6.10;4.10;;;;;;;22.73;54.76;100963.98;108285;1277;72965;-79
2022/09/12 09:52:52;;;;;;;6.30;4.20;;;;;;;22.85;53.90;100957.41;108132;1277;72832;-79
2022/09/12 09:55:29;;;;;;;5.90;3.30;;;;;;;22.89;53.58;100958.50;108307;1277;60471;-79
2022/09/12 09:57:56;;;;;;;5.50;4.20;;;;;;;22.96;54.03;100958.16;108173;1277;60567;-78
2022/09/12 10:00:27;;;;;;;6.80;5.10;;;;;;;23.03;53.40;100959.03;108276;1276;76174;-79
2022/09/12 10:03:09;;;;;;;6.80;4.30;;;;;;;23.08;53.36;100957.80;108411;1275;71642;-79
2022/09/12 10:05:55;;;;;;;6.80;4.70;;;;;;;23.17;53.80;100952.38;108371;1275;74070;-80
2022/09/12 10:08:32;;;;;;;7.20;4.20;;;;;;;23.30;53.83;100943.31;108360;1275;60373;-79
2022/09/12 10:11:06;;;;;;;5.20;3.40;;;;;;;23.48;52.30;100946.55;108561;1276;61353;-80
2022/09/12 10:13:36;;;;;;;4.90;3.20;;;;;;;23.64;51.70;100939.08;108477;1277;74718;-79
2022/09/12 10:16:27;;;;;;;5.20;3.80;;;;;;;23.70;50.00;100936.75;108356;1275;72813;-79
2022/09/12 10:18:56;;;;;;;5.30;3.80;;;;;;;23.77;50.10;100938.84;108270;1276;72665;-80
2022/09/12 10:21:40;;;;;;;5.50;3.80;;;;;;;23.90;50.52;100940.15;108145;1277;61009;-79
2022/09/12 10:24:12;;;;;;;5.60;3.10;;;;;;;24.06;50.55;100940.12;108359;1277;60444;-78
2022/09/12 10:26:40;;;;;;;5.60;3.60;;;;;;;24.19;50.09;100935.92;108299;1277;75703;-78
2022/09/12 10:29:18;;;;;;;4.20;3.40;;;;;;;24.31;49.72;100937.16;108193;1277;72306;-78
2022/09/12 10:31:52;;;;;;;5.50;3.60;;;;;;;24.49;50.19;100931.60;108287;1276;74560;-78
2022/09/12 10:34:24;;;;;;;5.60;4.00;;;;;;;24.63;49.03;100932.08;108153;1277;61664;-78
2022/09/12 10:37:00;;;;;;;5.20;4.20;;;;;;;24.67;48.36;100931.06;108017;1277;61779;-78
2022/09/12 10:39:27;;;;;;;4.80;3.30;;;;;;;24.76;48.44;100927.56;108335;1276;75831;-78
2022/09/12 10:41:54;;;;;;;5.00;3.30;;;;;;;24.87;47.75;100926.65;108161;1277;71588;-78
2022/09/12 10:44:26;;;;;;;6.50;3.70;;;;;;;24.99;47.00;100926.69;108333;1277;75238;-78
2022/09/12 10:46:54;;;;;;;4.80;3.60;;;;;;;24.98;45.99;100932.00;108333;1275;59607;-78
2022/09/12 10:49:25;;;;;;;5.20;3.20;;;;;;;25.03;46.16;100923.95;108378;1277;60506;-79
2022/09/12 10:51:53;;;;;;;4.70;3.50;;;;;;;25.10;46.33;100919.84;108265;1277;75018;-80
2022/09/12 10:54:26;;;;;;;4.90;3.40;;;;;;;25.03;45.99;100919.23;108379;1277;71538;-79
2022/09/12 10:57:18;;;;;;;4.40;3.20;;;;;;;24.98;45.59;100918.42;108367;1277;74001;-79
2022/09/12 11:00:13;;;;;;;3.90;2.80;;;;;;;25.01;46.05;100910.63;108387;1276;62357;-80
2022/09/12 11:02:58;;;;;;;4.40;2.80;;;;;;;25.02;46.16;100911.95;108357;1277;60793;-79
2022/09/12 11:05:40;;;;;;;3.40;2.60;;;;;;;25.08;46.83;100904.69;108287;1277;75576;-80
2022/09/12 11:08:15;;;;;;;5.40;2.70;;;;;;;25.15;46.22;100904.65;108417;1275;71393;-79
2022/09/12 11:10:53;;;;;;;4.10;2.80;;;;;;;25.24;46.84;100904.91;108270;1277;73054;-79
2022/09/12 11:13:49;;;;;;;5.20;2.90;;;;;;;25.40;46.59;100901.36;108113;1277;59579;-79
2022/09/12 11:16:26;;;;;;;4.30;2.40;;;;;;;25.55;45.78;100906.88;108107;1277;61484;-80
2022/09/12 11:19:07;;;;;;;4.50;2.20;;;;;;;25.54;44.76;100904.31;108248;1277;74658;-79
2022/09/12 11:21:45;;;;;;;4.50;2.60;;;;;;;25.56;45.41;100900.04;108277;1277;71021;-79
2022/09/12 11:24:43;;;;;;;3.00;2.10;;;;;;;25.53;45.68;100900.30;108415;1277;74006;-80
2022/09/12 11:27:32;;;;;;;3.80;2.20;;;;;;;25.52;44.89;100904.09;108319;1277;61828;-78
2022/09/12 11:30:08;;;;;;;3.20;2.00;;;;;;;25.52;44.86;100895.09;108283;1277;60339;-78
2022/09/12 11:32:49;;;;;;;4.00;2.10;;;;;;;25.54;44.33;100892.15;108213;1277;74652;-78
2022/09/12 11:35:19;;;;;;;3.00;1.80;;;;;;;25.58;44.93;100887.59;108231;1277;72532;-81
2022/09/12 11:37:48;;;;;;;4.40;1.90;;;;;;;25.71;44.87;100880.86;108338;1277;73271;-81
2022/09/12 11:40:21;;;;;;;2.60;1.80;;;;;;;25.83;44.05;100884.54;108233;1277;61772;-80
2022/09/12 11:42:52;;;;;;;2.60;1.60;;;;;;;25.94;43.80;100881.80;108391;1276;62303;-81